EFKS

Kuusamo Airport

Kuusamo, Finland
METAR EFKS 150720Z AUTO 26006KT 230V290 9999 OVC006 M05/M06 Q1031
Observed Flight Rules
Dec-15 @ 07:20 UTC (15 minutes ago) Instrument Flight Rules
Wind Visibility Clouds
260° at 6 knots 10,000+ meters
  • Overcast at 600' AGL
Temperatures Readings
Current -5°C / 23°F
Dewpoint -6°C / 21°F
Humidity 93%
Altimeter 30.44" Hg
Pressure 1031 hPa
Elevation 263
METAR EFKS 150720Z AUTO 26006KT 230V290 9999 OVC006 M05/M06 Q1031
Observed Flight Rules
Dec-15 @ 07:20 UTC
(15 minutes ago)
IFR
Wind Visibility
260° at 6 knots 10,000+ meters
Clouds
  • Overcast at 600' AGL
Temperature Dewpoint
-5°C / 23°F -6°C / 21°F
Humidity Altimeter Pressure
93% 30.44" Hg 1031 hPa